sensor_id;sensor_type;location;lat;lon;timestamp;pressure;altitude;pressure_sealevel;temperature;humidity
4012;BME280;2020;48.682;9.024;2023-01-25T00:01:57;97937.44;;;-0.21;100.00
4012;BME280;2020;48.682;9.024;2023-01-25T00:04:22;97935.00;;;-0.24;100.00
4012;BME280;2020;48.682;9.024;2023-01-25T00:06:48;97939.44;;;-0.30;100.00
4012;BME280;2020;48.682;9.024;2023-01-25T00:09:14;97935.19;;;-0.31;100.00
4012;BME280;2020;48.682;9.024;2023-01-25T00:11:39;97936.91;;;-0.31;100.00
4012;BME280;2020;48.682;9.024;2023-01-25T00:14:05;97935.88;;;-0.25;100.00
4012;BME280;2020;48.682;9.024;2023-01-25T00:16:31;97930.78;;;-0.25;100.00
4012;BME280;2020;48.682;9.024;2023-01-25T00:18:56;97927.31;;;-0.24;100.00
4012;BME280;2020;48.682;9.024;2023-01-25T00:21:23;97916.97;;;-0.21;100.00
4012;BME280;2020;48.682;9.024;2023-01-25T00:23:49;97911.84;;;-0.21;100.00
4012;BME280;2020;48.682;9.024;2023-01-25T00:26:15;97898.06;;;-0.17;100.00
4012;BME280;2020;48.682;9.024;2023-01-25T00:28:41;97900.06;;;-0.25;100.00
4012;BME280;2020;48.682;9.024;2023-01-25T00:31:08;97900.84;;;-0.23;100.00
4012;BME280;2020;48.682;9.024;2023-01-25T00:36:40;97903.59;;;-0.30;100.00
4012;BME280;2020;48.682;9.024;2023-01-25T00:39:10;97898.38;;;-0.26;100.00
4012;BME280;2020;48.682;9.024;2023-01-25T00:41:36;97905.38;;;-0.32;100.00
4012;BME280;2020;48.682;9.024;2023-01-25T00:44:01;97912.28;;;-0.34;100.00
4012;BME280;2020;48.682;9.024;2023-01-25T00:46:26;97913.84;;;-0.30;100.00
4012;BME280;2020;48.682;9.024;2023-01-25T00:48:52;97917.19;;;-0.27;100.00
4012;BME280;2020;48.682;9.024;2023-01-25T00:51:19;97916.41;;;-0.30;100.00
4012;BME280;2020;48.682;9.024;2023-01-25T00:53:44;97908.94;;;-0.36;100.00
4012;BME280;2020;48.682;9.024;2023-01-25T00:56:09;97903.59;;;-0.30;100.00
4012;BME280;2020;48.682;9.024;2023-01-25T00:58:35;97896.72;;;-0.27;100.00
4012;BME280;2020;48.682;9.024;2023-01-25T01:01:00;97896.94;;;-0.34;100.00
4012;BME280;2020;48.682;9.024;2023-01-25T01:03:25;97896.81;;;-0.31;100.00
4012;BME280;2020;48.682;9.024;2023-01-25T01:06:08;97883.84;;;-0.26;100.00
4012;BME280;2020;48.682;9.024;2023-01-25T01:08:37;97887.16;;;-0.22;100.00
4012;BME280;2020;48.682;9.024;2023-01-25T01:11:06;97886.25;;;-0.21;100.00
4012;BME280;2020;48.682;9.024;2023-01-25T01:13:32;97890.59;;;-0.23;100.00
4012;BME280;2020;48.682;9.024;2023-01-25T01:16:00;97894.72;;;-0.19;100.00
4012;BME280;2020;48.682;9.024;2023-01-25T01:18:33;97889.72;;;-0.22;100.00
4012;BME280;2020;48.682;9.024;2023-01-25T01:20:59;97890.50;;;-0.20;100.00
4012;BME280;2020;48.682;9.024;2023-01-25T01:23:26;97890.38;;;-0.17;100.00
4012;BME280;2020;48.682;9.024;2023-01-25T01:25:52;97891.28;;;-0.18;100.00
4012;BME280;2020;48.682;9.024;2023-01-25T01:28:17;97890.53;;;-0.22;100.00
4012;BME280;2020;48.682;9.024;2023-01-25T01:30:42;97891.28;;;-0.18;100.00
4012;BME280;2020;48.682;9.024;2023-01-25T01:33:07;97896.28;;;-0.15;100.00
4012;BME280;2020;48.682;9.024;2023-01-25T01:35:33;97886.09;;;-0.17;100.00
4012;BME280;2020;48.682;9.024;2023-01-25T01:37:58;97893.06;;;-0.20;100.00
4012;BME280;2020;48.682;9.024;2023-01-25T01:40:24;97882.72;;;-0.17;100.00
4012;BME280;2020;48.682;9.024;2023-01-25T01:43:04;97889.59;;;-0.19;100.00
4012;BME280;2020;48.682;9.024;2023-01-25T01:48:28;97893.06;;;-0.20;100.00
4012;BME280;2020;48.682;9.024;2023-01-25T01:50:59;97881.81;;;-0.16;100.00
4012;BME280;2020;48.682;9.024;2023-01-25T01:53:26;97887.72;;;-0.14;100.00
4012;BME280;2020;48.682;9.024;2023-01-25T01:55:56;97887.84;;;-0.17;100.00
4012;BME280;2020;48.682;9.024;2023-01-25T01:58:24;97886.97;;;-0.18;100.00
4012;BME280;2020;48.682;9.024;2023-01-25T02:00:50;97886.06;;;-0.15;100.00
4012;BME280;2020;48.682;9.024;2023-01-25T02:03:16;97887.84;;;-0.17;100.00
4012;BME280;2020;48.682;9.024;2023-01-25T02:08:20;97888.53;;;-0.13;100.00
4012;BME280;2020;48.682;9.024;2023-01-25T02:10:47;97885.84;;;-0.09;100.00
4012;BME280;2020;48.682;9.024;2023-01-25T02:13:13;97903.09;;;-0.14;100.00
4012;BME280;2020;48.682;9.024;2023-01-25T02:15:43;97886.88;;;-0.15;100.00
4012;BME280;2020;48.682;9.024;2023-01-25T02:18:10;97887.63;;;-0.11;100.00
4012;BME280;2020;48.682;9.024;2023-01-25T02:20:42;97885.94;;;-0.12;100.00
4012;BME280;2020;48.682;9.024;2023-01-25T02:25:37;97881.59;;;-0.10;100.00
4012;BME280;2020;48.682;9.024;2023-01-25T02:28:08;97875.59;;;-0.09;100.00
4012;BME280;2020;48.682;9.024;2023-01-25T02:30:35;97875.59;;;-0.09;100.00
4012;BME280;2020;48.682;9.024;2023-01-25T02:33:01;97872.47;;;-0.17;100.00
4012;BME280;2020;48.682;9.024;2023-01-25T02:35:58;97874.16;;;-0.16;100.00
4012;BME280;2020;48.682;9.024;2023-01-25T02:38:25;97867.25;;;-0.14;100.00
4012;BME280;2020;48.682;9.024;2023-01-25T02:40:58;97862.78;;;-0.09;100.00
4012;BME280;2020;48.682;9.024;2023-01-25T02:43:28;97858.78;;;-0.16;100.00
4012;BME280;2020;48.682;9.024;2023-01-25T02:45:59;97868.34;;;-0.21;100.00
4012;BME280;2020;48.682;9.024;2023-01-25T02:48:25;97865.91;;;-0.24;100.00
4012;BME280;2020;48.682;9.024;2023-01-25T02:50:50;97866.94;;;-0.30;100.00
4012;BME280;2020;48.682;9.024;2023-01-25T02:53:15;97869.25;;;-0.22;100.00
4012;BME280;2020;48.682;9.024;2023-01-25T02:55:41;97863.91;;;-0.16;100.00
4012;BME280;2020;48.682;9.024;2023-01-25T02:58:06;97871.13;;;-0.27;100.00
4012;BME280;2020;48.682;9.024;2023-01-25T03:00:31;97863.50;;;-0.29;100.00
4012;BME280;2020;48.682;9.024;2023-01-25T03:02:57;97862.44;;;-0.23;100.00
4012;BME280;2020;48.682;9.024;2023-01-25T03:05:22;97859.69;;;-0.17;100.00
4012;BME280;2020;48.682;9.024;2023-01-25T03:07:47;97852.88;;;-0.18;100.00
4012;BME280;2020;48.682;9.024;2023-01-25T03:10:13;97856.06;;;-0.11;100.00
4012;BME280;2020;48.682;9.024;2023-01-25T03:12:38;97850.75;;;-0.31;100.00
4012;BME280;2020;48.682;9.024;2023-01-25T03:15:04;97850.97;;;-0.37;100.00
4012;BME280;2020;48.682;9.024;2023-01-25T03:17:29;97839.53;;;-0.26;100.00
4012;BME280;2020;48.682;9.024;2023-01-25T03:19:55;97836.97;;;-0.26;100.00
4012;BME280;2020;48.682;9.024;2023-01-25T03:22:20;97840.41;;;-0.27;100.00
4012;BME280;2020;48.682;9.024;2023-01-25T03:24:45;97836.97;;;-0.26;100.00
4012;BME280;2020;48.682;9.024;2023-01-25T03:27:11;97835.50;;;-0.34;100.00
4012;BME280;2020;48.682;9.024;2023-01-25T03:29:39;97828.94;;;-0.41;100.00
4012;BME280;2020;48.682;9.024;2023-01-25T03:32:04;97825.59;;;-0.43;100.00
4012;BME280;2020;48.682;9.024;2023-01-25T03:34:29;97822.06;;;-0.39;100.00
4012;BME280;2020;48.682;9.024;2023-01-25T03:36:55;97818.50;;;-0.35;100.00
4012;BME280;2020;48.682;9.024;2023-01-25T03:39:20;97817.59;;;-0.34;100.00
4012;BME280;2020;48.682;9.024;2023-01-25T03:41:45;97819.94;;;-0.27;100.00
4012;BME280;2020;48.682;9.024;2023-01-25T03:44:11;97825.06;;;-0.27;100.00
4012;BME280;2020;48.682;9.024;2023-01-25T03:46:37;97825.19;;;-0.31;100.00
4012;BME280;2020;48.682;9.024;2023-01-25T03:49:03;97814.72;;;-0.24;100.00
4012;BME280;2020;48.682;9.024;2023-01-25T03:51:28;97826.72;;;-0.26;100.00
4012;BME280;2020;48.682;9.024;2023-01-25T03:53:53;97824.22;;;-0.28;100.00
4012;BME280;2020;48.682;9.024;2023-01-25T03:56:18;97823.41;;;-0.28;100.00
4012;BME280;2020;48.682;9.024;2023-01-25T03:58:44;97818.94;;;-0.23;100.00
4012;BME280;2020;48.682;9.024;2023-01-25T04:01:10;97823.06;;;-0.19;100.00
4012;BME280;2020;48.682;9.024;2023-01-25T04:03:36;97818.72;;;-0.17;100.00
4012;BME280;2020;48.682;9.024;2023-01-25T04:06:02;97814.84;;;-0.27;100.00
4012;BME280;2020;48.682;9.024;2023-01-25T04:08:28;97816.59;;;-0.30;100.00
4012;BME280;2020;48.682;9.024;2023-01-25T04:10:55;97811.81;;;-0.39;100.00
4012;BME280;2020;48.682;9.024;2023-01-25T04:13:22;97816.59;;;-0.30;100.00
4012;BME280;2020;48.682;9.024;2023-01-25T04:15:48;97817.28;;;-0.24;100.00
4012;BME280;2020;48.682;9.024;2023-01-25T04:18:14;97813.72;;;-0.20;100.00
4012;BME280;2020;48.682;9.024;2023-01-25T04:20:40;97818.84;;;-0.20;100.00
4012;BME280;2020;48.682;9.024;2023-01-25T04:23:06;97817.84;;;-0.16;100.00
4012;BME280;2020;48.682;9.024;2023-01-25T04:25:31;97820.44;;;-0.18;100.00
4012;BME280;2020;48.682;9.024;2023-01-25T04:27:57;97821.41;;;-0.20;100.00
4012;BME280;2020;48.682;9.024;2023-01-25T04:30:22;97820.44;;;-0.18;100.00
4012;BME280;2020;48.682;9.024;2023-01-25T04:32:48;97812.84;;;-0.19;100.00
4012;BME280;2020;48.682;9.024;2023-01-25T04:35:13;97814.38;;;-0.15;100.00
4012;BME280;2020;48.682;9.024;2023-01-25T04:37:39;97819.94;;;-0.27;100.00
4012;BME280;2020;48.682;9.024;2023-01-25T04:40:04;97808.72;;;-0.23;100.00
4012;BME280;2020;48.682;9.024;2023-01-25T04:42:30;97806.38;;;-0.30;100.00
4012;BME280;2020;48.682;9.024;2023-01-25T04:44:55;97804.38;;;-0.21;100.00
4012;BME280;2020;48.682;9.024;2023-01-25T04:47:20;97809.59;;;-0.24;100.00
4012;BME280;2020;48.682;9.024;2023-01-25T04:49:46;97806.59;;;-0.36;100.00
4012;BME280;2020;48.682;9.024;2023-01-25T04:52:11;97804.81;;;-0.34;100.00
4012;BME280;2020;48.682;9.024;2023-01-25T04:54:36;97808.25;;;-0.35;100.00
4012;BME280;2020;48.682;9.024;2023-01-25T04:57:01;97802.81;;;-0.25;100.00
4012;BME280;2020;48.682;9.024;2023-01-25T04:59:27;97799.38;;;-0.24;100.00
4012;BME280;2020;48.682;9.024;2023-01-25T05:01:53;97799.47;;;-0.27;100.00
4012;BME280;2020;48.682;9.024;2023-01-25T05:04:18;97800.41;;;-0.30;100.00
4012;BME280;2020;48.682;9.024;2023-01-25T05:06:43;97801.03;;;-0.23;100.00
4012;BME280;2020;48.682;9.024;2023-01-25T05:09:08;97802.94;;;-0.28;100.00
4012;BME280;2020;48.682;9.024;2023-01-25T05:11:34;97792.81;;;-0.32;100.00
4012;BME280;2020;48.682;9.024;2023-01-25T05:13:59;97792.81;;;-0.32;100.00
4012;BME280;2020;48.682;9.024;2023-01-25T05:16:24;97792.81;;;-0.32;100.00
4012;BME280;2020;48.682;9.024;2023-01-25T05:18:50;97796.34;;;-0.36;100.00
4012;BME280;2020;48.682;9.024;2023-01-25T05:21:15;97793.81;;;-0.36;100.00
4012;BME280;2020;48.682;9.024;2023-01-25T05:23:59;97797.81;;;-0.28;100.00
4012;BME280;2020;48.682;9.024;2023-01-25T05:26:24;97794.56;;;-0.34;100.00
4012;BME280;2020;48.682;9.024;2023-01-25T05:29:08;97801.16;;;-0.26;100.00
4012;BME280;2020;48.682;9.024;2023-01-25T05:31:34;97794.34;;;-0.27;100.00
4012;BME280;2020;48.682;9.024;2023-01-25T05:33:59;97794.25;;;-0.24;100.00
4012;BME280;2020;48.682;9.024;2023-01-25T05:36:24;97797.91;;;-0.32;100.00
4012;BME280;2020;48.682;9.024;2023-01-25T05:38:50;97787.56;;;-0.28;100.00
4012;BME280;2020;48.682;9.024;2023-01-25T05:41:17;97796.13;;;-0.30;100.00
4012;BME280;2020;48.682;9.024;2023-01-25T05:43:42;97792.69;;;-0.28;100.00
4012;BME280;2020;48.682;9.024;2023-01-25T05:46:07;97788.56;;;-0.33;100.00
4012;BME280;2020;48.682;9.024;2023-01-25T05:48:32;97785.06;;;-0.30;100.00
4012;BME280;2020;48.682;9.024;2023-01-25T05:50:58;97780.78;;;-0.30;100.00
4012;BME280;2020;48.682;9.024;2023-01-25T05:53:25;97786.72;;;-0.29;100.00
4012;BME280;2020;48.682;9.024;2023-01-25T05:55:50;97783.00;;;-0.44;100.00
4012;BME280;2020;48.682;9.024;2023-01-25T05:58:15;97792.91;;;-0.35;100.00
4012;BME280;2020;48.682;9.024;2023-01-25T06:00:40;97785.91;;;-0.30;100.00
4012;BME280;2020;48.682;9.024;2023-01-25T06:03:06;97784.34;;;-0.34;100.00
4012;BME280;2020;48.682;9.024;2023-01-25T06:05:31;97782.56;;;-0.32;100.00
4012;BME280;2020;48.682;9.024;2023-01-25T06:07:57;97779.22;;;-0.34;100.00
4012;BME280;2020;48.682;9.024;2023-01-25T06:10:22;97779.22;;;-0.34;100.00
4012;BME280;2020;48.682;9.024;2023-01-25T06:12:47;97784.22;;;-0.31;100.00
4012;BME280;2020;48.682;9.024;2023-01-25T06:15:13;97782.34;;;-0.25;100.00
4012;BME280;2020;48.682;9.024;2023-01-25T06:17:38;97779.81;;;-0.27;100.00
4012;BME280;2020;48.682;9.024;2023-01-25T06:20:04;97782.44;;;-0.28;100.00
4012;BME280;2020;48.682;9.024;2023-01-25T06:22:29;97781.78;;;-0.34;100.00
4012;BME280;2020;48.682;9.024;2023-01-25T06:24:54;97775.66;;;-0.30;100.00
4012;BME280;2020;48.682;9.024;2023-01-25T06:27:20;97775.22;;;-0.41;100.00
4012;BME280;2020;48.682;9.024;2023-01-25T06:29:45;97771.78;;;-0.40;100.00
4012;BME280;2020;48.682;9.024;2023-01-25T06:32:10;97775.88;;;-0.36;100.00
4012;BME280;2020;48.682;9.024;2023-01-25T06:34:35;97776.09;;;-0.42;100.00
4012;BME280;2020;48.682;9.024;2023-01-25T06:37:01;97772.22;;;-0.52;100.00
4012;BME280;2020;48.682;9.024;2023-01-25T06:39:26;97774.78;;;-0.52;100.00
4012;BME280;2020;48.682;9.024;2023-01-25T06:41:51;97769.31;;;-0.43;100.00
4012;BME280;2020;48.682;9.024;2023-01-25T06:44:16;97776.00;;;-0.39;100.00
4012;BME280;2020;48.682;9.024;2023-01-25T06:46:41;97772.56;;;-0.38;100.00
4012;BME280;2020;48.682;9.024;2023-01-25T06:49:07;97779.22;;;-0.34;100.00
4012;BME280;2020;48.682;9.024;2023-01-25T06:51:32;97775.78;;;-0.33;100.00
4012;BME280;2020;48.682;9.024;2023-01-25T06:54:01;97776.00;;;-0.39;100.00
4012;BME280;2020;48.682;9.024;2023-01-25T06:56:27;97769.22;;;-0.40;100.00
4012;BME280;2020;48.682;9.024;2023-01-25T06:58:52;97764.91;;;-0.39;100.00
4012;BME280;2020;48.682;9.024;2023-01-25T07:01:22;97763.88;;;-0.34;100.00
4012;BME280;2020;48.682;9.024;2023-01-25T07:03:53;97758.66;;;-0.31;100.00
4012;BME280;2020;48.682;9.024;2023-01-25T07:06:19;97763.09;;;-0.36;100.00
4012;BME280;2020;48.682;9.024;2023-01-25T07:08:45;97753.88;;;-0.40;100.00
4012;BME280;2020;48.682;9.024;2023-01-25T07:11:11;97744.34;;;-0.36;100.00
4012;BME280;2020;48.682;9.024;2023-01-25T07:13:39;97743.84;;;-0.46;100.00
4012;BME280;2020;48.682;9.024;2023-01-25T07:16:07;97742.41;;;-0.53;100.00
4012;BME280;2020;48.682;9.024;2023-01-25T07:18:33;97749.19;;;-0.52;100.00
4012;BME280;2020;48.682;9.024;2023-01-25T07:21:07;97743.97;;;-0.49;100.00
4012;BME280;2020;48.682;9.024;2023-01-25T07:23:33;97739.56;;;-0.46;100.00
4012;BME280;2020;48.682;9.024;2023-01-25T07:25:59;97745.63;;;-0.48;100.00
4012;BME280;2020;48.682;9.024;2023-01-25T07:28:24;97747.41;;;-0.50;100.00
4012;BME280;2020;48.682;9.024;2023-01-25T07:30:50;97746.63;;;-0.52;100.00
4012;BME280;2020;48.682;9.024;2023-01-25T07:33:15;97743.84;;;-0.46;100.00
4012;BME280;2020;48.682;9.024;2023-01-25T07:35:41;97750.63;;;-0.45;100.00
4012;BME280;2020;48.682;9.024;2023-01-25T07:38:06;97735.06;;;-0.39;100.00
4012;BME280;2020;48.682;9.024;2023-01-25T07:40:31;97739.22;;;-0.36;100.00
4012;BME280;2020;48.682;9.024;2023-01-25T07:42:57;97733.09;;;-0.56;100.00
4012;BME280;2020;48.682;9.024;2023-01-25T07:45:23;97733.56;;;-0.45;100.00
4012;BME280;2020;48.682;9.024;2023-01-25T07:47:57;97731.63;;;-0.38;100.00
4012;BME280;2020;48.682;9.024;2023-01-25T07:50:23;97738.22;;;-0.32;100.00
4012;BME280;2020;48.682;9.024;2023-01-25T07:52:48;97734.63;;;-0.26;100.00
4012;BME280;2020;48.682;9.024;2023-01-25T07:55:13;97732.94;;;-0.27;100.00
4012;BME280;2020;48.682;9.024;2023-01-25T07:57:39;97729.38;;;-0.23;100.00
4012;BME280;2020;48.682;9.024;2023-01-25T08:00:05;97734.38;;;-0.20;100.00
4012;BME280;2020;48.682;9.024;2023-01-25T08:02:31;97726.03;;;-0.25;100.00
4012;BME280;2020;48.682;9.024;2023-01-25T08:04:57;97727.06;;;-0.30;100.00
4012;BME280;2020;48.682;9.024;2023-01-25T08:07:22;97731.38;;;-0.32;100.00
4012;BME280;2020;48.682;9.024;2023-01-25T08:09:47;97739.97;;;-0.33;100.00
4012;BME280;2020;48.682;9.024;2023-01-25T08:12:13;97735.66;;;-0.32;100.00
4012;BME280;2020;48.682;9.024;2023-01-25T08:14:38;97731.97;;;-0.25;100.00
4012;BME280;2020;48.682;9.024;2023-01-25T08:17:04;97737.94;;;-0.24;100.00
4012;BME280;2020;48.682;9.024;2023-01-25T08:19:29;97743.97;;;-0.25;100.00
4012;BME280;2020;48.682;9.024;2023-01-25T08:21:54;97742.19;;;-0.23;100.00
4012;BME280;2020;48.682;9.024;2023-01-25T08:24:19;97743.06;;;-0.24;100.00
4012;BME280;2020;48.682;9.024;2023-01-25T08:26:45;97737.94;;;-0.24;100.00
4012;BME280;2020;48.682;9.024;2023-01-25T08:29:10;97743.19;;;-0.27;100.00
4012;BME280;2020;48.682;9.024;2023-01-25T08:31:39;97744.84;;;-0.26;100.00
4012;BME280;2020;48.682;9.024;2023-01-25T08:34:05;97738.66;;;-0.21;100.00
4012;BME280;2020;48.682;9.024;2023-01-25T08:36:31;97744.50;;;-0.17;100.00
4012;BME280;2020;48.682;9.024;2023-01-25T08:39:02;97742.72;;;-0.15;100.00
4012;BME280;2020;48.682;9.024;2023-01-25T08:41:29;97731.72;;;-0.17;100.00
4012;BME280;2020;48.682;9.024;2023-01-25T08:43:55;97738.44;;;-0.15;100.00
4012;BME280;2020;48.682;9.024;2023-01-25T08:46:22;97735.94;;;-0.16;100.00
4012;BME280;2020;48.682;9.024;2023-01-25T08:48:52;97729.16;;;-0.17;100.00
4012;BME280;2020;48.682;9.024;2023-01-25T08:51:18;97726.97;;;-0.28;100.00
4012;BME280;2020;48.682;9.024;2023-01-25T08:53:44;97717.59;;;-0.27;100.00
4012;BME280;2020;48.682;9.024;2023-01-25T08:56:11;97726.16;;;-0.28;100.00
4012;BME280;2020;48.682;9.024;2023-01-25T08:58:39;97719.16;;;-0.23;100.00
4012;BME280;2020;48.682;9.024;2023-01-25T09:01:07;97720.19;;;-0.29;100.00
4012;BME280;2020;48.682;9.024;2023-01-25T09:03:40;97710.69;;;-0.25;100.00
4012;BME280;2020;48.682;9.024;2023-01-25T09:06:06;97708.91;;;-0.23;100.00
4012;BME280;2020;48.682;9.024;2023-01-25T09:08:32;97707.13;;;-0.21;100.00
4012;BME280;2020;48.682;9.024;2023-01-25T09:11:12;97705.47;;;-0.22;100.00
4012;BME280;2020;48.682;9.024;2023-01-25T09:13:38;97705.34;;;-0.19;100.00
4012;BME280;2020;48.682;9.024;2023-01-25T09:16:09;97699.38;;;-0.20;100.00
4012;BME280;2020;48.682;9.024;2023-01-25T09:18:36;97707.00;;;-0.18;100.00
4012;BME280;2020;48.682;9.024;2023-01-25T09:21:20;97701.88;;;-0.18;100.00
4012;BME280;2020;48.682;9.024;2023-01-25T09:23:50;97695.34;;;-0.25;100.00
4012;BME280;2020;48.682;9.024;2023-01-25T09:26:16;97692.00;;;-0.27;100.00
4012;BME280;2020;48.682;9.024;2023-01-25T09:28:46;97689.25;;;-0.23;100.00
4012;BME280;2020;48.682;9.024;2023-01-25T09:31:11;97695.44;;;-0.28;100.00
4012;BME280;2020;48.682;9.024;2023-01-25T09:33:38;97703.41;;;-0.36;100.00
4012;BME280;2020;48.682;9.024;2023-01-25T09:36:04;97699.84;;;-0.32;100.00
4012;BME280;2020;48.682;9.024;2023-01-25T09:38:30;97694.72;;;-0.32;100.00
4012;BME280;2020;48.682;9.024;2023-01-25T09:41:13;97698.69;;;-0.23;100.00
4012;BME280;2020;48.682;9.024;2023-01-25T09:46:44;97701.88;;;-0.18;100.00
4012;BME280;2020;48.682;9.024;2023-01-25T09:49:44;97704.03;;;-0.30;100.00
4012;BME280;2020;48.682;9.024;2023-01-25T09:52:45;97698.56;;;-0.20;100.00
4012;BME280;2020;48.682;9.024;2023-01-25T09:55:17;97701.16;;;-0.22;100.00
4012;BME280;2020;48.682;9.024;2023-01-25T09:57:45;97698.56;;;-0.20;100.00
4012;BME280;2020;48.682;9.024;2023-01-25T10:00:21;97695.22;;;-0.22;100.00
4012;BME280;2020;48.682;9.024;2023-01-25T10:03:02;97693.56;;;-0.23;100.00
4012;BME280;2020;48.682;9.024;2023-01-25T10:05:33;97701.38;;;-0.28;100.00
4012;BME280;2020;48.682;9.024;2023-01-25T10:08:02;97691.78;;;-0.21;100.00
4012;BME280;2020;48.682;9.024;2023-01-25T10:10:38;97698.56;;;-0.20;100.00
4012;BME280;2020;48.682;9.024;2023-01-25T10:13:10;97693.44;;;-0.20;100.00
4012;BME280;2020;48.682;9.024;2023-01-25T10:15:39;97693.31;;;-0.17;100.00
4012;BME280;2020;48.682;9.024;2023-01-25T10:18:16;97685.69;;;-0.19;100.00
4012;BME280;2020;48.682;9.024;2023-01-25T10:21:00;97688.06;;;-0.36;100.00
4012;BME280;2020;48.682;9.024;2023-01-25T10:23:40;97690.22;;;-0.25;100.00
4012;BME280;2020;48.682;9.024;2023-01-25T10:26:24;97690.69;;;-0.38;100.00
4012;BME280;2020;48.682;9.024;2023-01-25T10:31:18;97680.69;;;-0.44;100.00
4012;BME280;2020;48.682;9.024;2023-01-25T10:33:45;97675.56;;;-0.44;100.00
4012;BME280;2020;48.682;9.024;2023-01-25T10:36:13;97673.44;;;-0.33;100.00
4012;BME280;2020;48.682;9.024;2023-01-25T10:38:44;97668.09;;;-0.26;100.00
4012;BME280;2020;48.682;9.024;2023-01-25T10:41:23;97670.81;;;-0.31;100.00
4012;BME280;2020;48.682;9.024;2023-01-25T10:43:51;97664.09;;;-0.34;100.00
4012;BME280;2020;48.682;9.024;2023-01-25T10:46:37;97659.63;;;-0.28;100.00
4012;BME280;2020;48.682;9.024;2023-01-25T10:52:20;97649.56;;;-0.33;100.00
4012;BME280;2020;48.682;9.024;2023-01-25T10:54:47;97646.59;;;-0.22;100.00
4012;BME280;2020;48.682;9.024;2023-01-25T10:57:19;97642.06;;;-0.16;100.00
4012;BME280;2020;48.682;9.024;2023-01-25T10:59:48;97638.81;;;-0.19;100.00
4012;BME280;2020;48.682;9.024;2023-01-25T11:07:42;97635.72;;;-0.27;100.00
4012;BME280;2020;48.682;9.024;2023-01-25T11:10:27;97630.28;;;-0.42;100.00
4012;BME280;2020;48.682;9.024;2023-01-25T11:15:44;97635.72;;;-0.27;100.00
4012;BME280;2020;48.682;9.024;2023-01-25T11:18:15;97625.13;;;-0.18;100.00
4012;BME280;2020;48.682;9.024;2023-01-25T11:20:42;97627.03;;;-0.23;100.00
4012;BME280;2020;48.682;9.024;2023-01-25T11:23:24;97633.03;;;-0.24;100.00
4012;BME280;2020;48.682;9.024;2023-01-25T11:25:50;97630.34;;;-0.21;100.00
4012;BME280;2020;48.682;9.024;2023-01-25T11:28:20;97618.34;;;-0.19;100.00
4012;BME280;2020;48.682;9.024;2023-01-25T11:30:47;97627.84;;;-0.23;100.00
4012;BME280;2020;48.682;9.024;2023-01-25T11:33:15;97620.94;;;-0.21;100.00
4012;BME280;2020;48.682;9.024;2023-01-25T11:36:21;97606.31;;;-0.17;100.00
4012;BME280;2020;48.682;9.024;2023-01-25T11:39:07;97608.09;;;-0.19;100.00
4012;BME280;2020;48.682;9.024;2023-01-25T11:44:52;97594.28;;;-0.15;100.00
4012;BME280;2020;48.682;9.024;2023-01-25T11:50:06;97584.53;;;-0.27;100.00
4012;BME280;2020;48.682;9.024;2023-01-25T11:52:55;97584.53;;;-0.27;100.00
4012;BME280;2020;48.682;9.024;2023-01-25T12:01:50;97571.44;;;-0.42;100.00
4012;BME280;2020;48.682;9.024;2023-01-25T12:06:58;97553.94;;;-0.31;100.00
4012;BME280;2020;48.682;9.024;2023-01-25T12:29:04;97508.59;;;-0.27;100.00
4012;BME280;2020;48.682;9.024;2023-01-25T12:31:44;97504.06;;;-0.20;100.00
4012;BME280;2020;48.682;9.024;2023-01-25T12:34:25;97497.03;;;-0.15;100.00
4012;BME280;2020;48.682;9.024;2023-01-25T12:36:51;97484.03;;;-0.10;100.00
4012;BME280;2020;48.682;9.024;2023-01-25T12:39:33;97481.16;;;-0.03;100.00
4012;BME280;2020;48.682;9.024;2023-01-25T12:42:24;97476.75;;;0.01;100.00
4012;BME280;2020;48.682;9.024;2023-01-25T12:45:03;97476.03;;;-0.03;100.00
4012;BME280;2020;48.682;9.024;2023-01-25T12:48:12;97476.03;;;-0.03;100.00
4012;BME280;2020;48.682;9.024;2023-01-25T12:50:20;97469.78;;;-0.16;99.86
4012;BME280;2020;48.682;9.024;2023-01-25T12:52:51;97465.59;;;-0.19;99.96
4012;BME280;2020;48.682;9.024;2023-01-25T12:55:19;97474.00;;;-0.15;100.00
4012;BME280;2020;48.682;9.024;2023-01-25T12:58:21;97463.50;;;-0.30;100.00
4012;BME280;2020;48.682;9.024;2023-01-25T13:03:38;97463.94;;;-0.40;100.00
4012;BME280;2020;48.682;9.024;2023-01-25T13:06:21;97452.00;;;-0.40;100.00
4012;BME280;2020;48.682;9.024;2023-01-25T13:11:41;97450.69;;;-0.50;100.00
4012;BME280;2020;48.682;9.024;2023-01-25T13:14:24;97437.16;;;-0.52;100.00
4012;BME280;2020;48.682;9.024;2023-01-25T13:16:53;97439.06;;;-0.57;100.00
4012;BME280;2020;48.682;9.024;2023-01-25T13:19:20;97439.31;;;-0.64;100.00
4012;BME280;2020;48.682;9.024;2023-01-25T13:21:47;97429.41;;;-0.73;100.00
4012;BME280;2020;48.682;9.024;2023-01-25T13:24:20;97431.94;;;-0.71;100.00
4012;BME280;2020;48.682;9.024;2023-01-25T13:26:56;97431.19;;;-0.75;100.00
4012;BME280;2020;48.682;9.024;2023-01-25T13:29:42;97428.09;;;-0.61;100.00
4012;BME280;2020;48.682;9.024;2023-01-25T13:37:26;97418.59;;;-0.37;100.00
4012;BME280;2020;48.682;9.024;2023-01-25T13:42:31;97414.13;;;-0.32;100.00
4012;BME280;2020;48.682;9.024;2023-01-25T13:45:11;97407.72;;;-0.42;100.00
4012;BME280;2020;48.682;9.024;2023-01-25T13:47:38;97400.81;;;-0.40;100.00
4012;BME280;2020;48.682;9.024;2023-01-25T13:50:24;97396.66;;;-0.42;100.00
4012;BME280;2020;48.682;9.024;2023-01-25T13:53:19;97390.59;;;-0.40;100.00
4012;BME280;2020;48.682;9.024;2023-01-25T13:55:48;97396.25;;;-0.33;100.00
4012;BME280;2020;48.682;9.024;2023-01-25T13:58:44;97399.16;;;-0.41;100.00
4012;BME280;2020;48.682;9.024;2023-01-25T14:01:16;97397.53;;;-0.43;100.00
4012;BME280;2020;48.682;9.024;2023-01-25T14:03:44;97397.38;;;-0.39;100.00
4012;BME280;2020;48.682;9.024;2023-01-25T14:06:25;97399.53;;;-0.50;100.00
4012;BME280;2020;48.682;9.024;2023-01-25T14:08:53;97384.84;;;-0.66;100.00
4012;BME280;2020;48.682;9.024;2023-01-25T14:11:21;97387.06;;;-0.58;100.00
4012;BME280;2020;48.682;9.024;2023-01-25T14:14:30;97380.63;;;-0.46;100.00
4012;BME280;2020;48.682;9.024;2023-01-25T14:17:21;97378.69;;;-0.41;100.00
4012;BME280;2020;48.682;9.024;2023-01-25T14:19:54;97379.09;;;-0.50;100.00
4012;BME280;2020;48.682;9.024;2023-01-25T14:22:24;97375.75;;;-0.52;100.00
4012;BME280;2020;48.682;9.024;2023-01-25T14:25:26;97377.81;;;-0.61;100.00
4012;BME280;2020;48.682;9.024;2023-01-25T14:30:33;97390.47;;;-0.57;100.00
4012;BME280;2020;48.682;9.024;2023-01-25T14:33:16;97393.66;;;-0.52;100.00
4012;BME280;2020;48.682;9.024;2023-01-25T14:35:44;97389.69;;;-0.60;100.00
4012;BME280;2020;48.682;9.024;2023-01-25T14:41:05;97387.81;;;-0.56;100.00
4012;BME280;2020;48.682;9.024;2023-01-25T14:43:35;97386.13;;;-0.55;100.00